sensor_id;sensor_type;location;lat;lon;timestamp;temperature;humidity
38941;DHT22;43236;47.208;7.518;2024-03-22T00:00:43;14.00;93.10
38941;DHT22;43236;47.208;7.518;2024-03-22T00:03:29;14.00;93.10
38941;DHT22;43236;47.208;7.518;2024-03-22T00:06:16;13.90;93.20
38941;DHT22;43236;47.208;7.518;2024-03-22T00:09:03;13.90;93.30
38941;DHT22;43236;47.208;7.518;2024-03-22T00:11:51;13.80;93.20
38941;DHT22;43236;47.208;7.518;2024-03-22T00:14:37;13.80;93.00
38941;DHT22;43236;47.208;7.518;2024-03-22T00:17:24;13.80;93.20
38941;DHT22;43236;47.208;7.518;2024-03-22T00:20:10;13.80;93.60
38941;DHT22;43236;47.208;7.518;2024-03-22T00:22:57;13.70;93.10
38941;DHT22;43236;47.208;7.518;2024-03-22T00:25:45;13.70;93.70
38941;DHT22;43236;47.208;7.518;2024-03-22T00:28:32;13.70;93.40
38941;DHT22;43236;47.208;7.518;2024-03-22T00:31:18;13.60;93.30
38941;DHT22;43236;47.208;7.518;2024-03-22T00:34:05;13.60;93.40
38941;DHT22;43236;47.208;7.518;2024-03-22T00:36:51;13.50;93.30
38941;DHT22;43236;47.208;7.518;2024-03-22T00:39:38;13.50;93.30
38941;DHT22;43236;47.208;7.518;2024-03-22T00:42:25;13.40;93.30
38941;DHT22;43236;47.208;7.518;2024-03-22T00:45:13;13.40;93.40
38941;DHT22;43236;47.208;7.518;2024-03-22T00:47:59;13.40;93.40
38941;DHT22;43236;47.208;7.518;2024-03-22T00:50:46;13.30;93.40
38941;DHT22;43236;47.208;7.518;2024-03-22T00:53:32;13.30;93.60
38941;DHT22;43236;47.208;7.518;2024-03-22T00:56:19;13.30;93.60
38941;DHT22;43236;47.208;7.518;2024-03-22T00:59:06;13.30;93.50
38941;DHT22;43236;47.208;7.518;2024-03-22T01:01:53;13.20;93.60
38941;DHT22;43236;47.208;7.518;2024-03-22T01:04:39;13.20;93.50
38941;DHT22;43236;47.208;7.518;2024-03-22T01:07:26;13.20;93.70
38941;DHT22;43236;47.208;7.518;2024-03-22T01:10:12;13.10;93.60
38941;DHT22;43236;47.208;7.518;2024-03-22T01:12:59;13.10;93.60
38941;DHT22;43236;47.208;7.518;2024-03-22T01:15:48;13.00;93.60
38941;DHT22;43236;47.208;7.518;2024-03-22T01:18:34;13.00;93.50
38941;DHT22;43236;47.208;7.518;2024-03-22T01:21:21;13.00;93.60
38941;DHT22;43236;47.208;7.518;2024-03-22T01:24:10;12.90;93.50
38941;DHT22;43236;47.208;7.518;2024-03-22T01:26:57;12.90;93.60
38941;DHT22;43236;47.208;7.518;2024-03-22T01:29:43;12.90;93.50
38941;DHT22;43236;47.208;7.518;2024-03-22T01:32:32;12.80;93.60
38941;DHT22;43236;47.208;7.518;2024-03-22T01:35:18;12.80;93.50
38941;DHT22;43236;47.208;7.518;2024-03-22T01:38:05;12.80;93.40
38941;DHT22;43236;47.208;7.518;2024-03-22T01:40:51;12.80;93.50
38941;DHT22;43236;47.208;7.518;2024-03-22T01:43:38;12.70;93.40
38941;DHT22;43236;47.208;7.518;2024-03-22T01:46:24;12.70;93.40
38941;DHT22;43236;47.208;7.518;2024-03-22T01:49:14;12.60;93.40
38941;DHT22;43236;47.208;7.518;2024-03-22T01:52:01;12.60;93.50
38941;DHT22;43236;47.208;7.518;2024-03-22T01:54:49;12.60;93.60
38941;DHT22;43236;47.208;7.518;2024-03-22T01:57:36;12.60;93.60
38941;DHT22;43236;47.208;7.518;2024-03-22T02:00:23;12.60;93.50
38941;DHT22;43236;47.208;7.518;2024-03-22T02:03:09;12.50;93.40
38941;DHT22;43236;47.208;7.518;2024-03-22T02:05:57;12.50;93.40
38941;DHT22;43236;47.208;7.518;2024-03-22T02:08:44;12.50;93.50
38941;DHT22;43236;47.208;7.518;2024-03-22T02:11:31;12.50;93.60
38941;DHT22;43236;47.208;7.518;2024-03-22T02:14:17;12.40;93.40
38941;DHT22;43236;47.208;7.518;2024-03-22T02:17:04;12.40;93.20
38941;DHT22;43236;47.208;7.518;2024-03-22T02:19:50;12.30;93.20
38941;DHT22;43236;47.208;7.518;2024-03-22T02:22:39;12.30;93.30
38941;DHT22;43236;47.208;7.518;2024-03-22T02:25:26;12.30;93.50
38941;DHT22;43236;47.208;7.518;2024-03-22T02:28:13;12.30;93.40
38941;DHT22;43236;47.208;7.518;2024-03-22T02:30:59;12.20;93.30
38941;DHT22;43236;47.208;7.518;2024-03-22T02:33:47;12.20;93.20
38941;DHT22;43236;47.208;7.518;2024-03-22T02:36:33;12.20;93.20
38941;DHT22;43236;47.208;7.518;2024-03-22T02:39:20;12.10;93.00
38941;DHT22;43236;47.208;7.518;2024-03-22T02:42:07;12.10;93.10
38941;DHT22;43236;47.208;7.518;2024-03-22T02:44:54;12.10;93.10
38941;DHT22;43236;47.208;7.518;2024-03-22T02:47:40;12.00;93.00
38941;DHT22;43236;47.208;7.518;2024-03-22T02:50:27;12.00;93.00
38941;DHT22;43236;47.208;7.518;2024-03-22T02:53:13;12.00;92.90
38941;DHT22;43236;47.208;7.518;2024-03-22T02:56:00;11.90;93.00
38941;DHT22;43236;47.208;7.518;2024-03-22T02:58:49;11.90;93.00
38941;DHT22;43236;47.208;7.518;2024-03-22T03:01:36;11.90;93.20
38941;DHT22;43236;47.208;7.518;2024-03-22T03:04:22;11.90;93.20
38941;DHT22;43236;47.208;7.518;2024-03-22T03:07:10;11.80;93.20
38941;DHT22;43236;47.208;7.518;2024-03-22T03:09:57;11.80;93.50
38941;DHT22;43236;47.208;7.518;2024-03-22T03:12:44;11.80;93.60
38941;DHT22;43236;47.208;7.518;2024-03-22T03:15:32;11.80;93.40
38941;DHT22;43236;47.208;7.518;2024-03-22T03:18:19;11.80;93.40
38941;DHT22;43236;47.208;7.518;2024-03-22T03:21:05;11.90;93.70
38941;DHT22;43236;47.208;7.518;2024-03-22T03:23:52;11.90;93.80
38941;DHT22;43236;47.208;7.518;2024-03-22T03:26:38;11.80;93.70
38941;DHT22;43236;47.208;7.518;2024-03-22T03:29:25;11.80;93.70
38941;DHT22;43236;47.208;7.518;2024-03-22T03:32:12;11.80;93.90
38941;DHT22;43236;47.208;7.518;2024-03-22T03:34:59;11.80;93.70
38941;DHT22;43236;47.208;7.518;2024-03-22T03:37:45;11.80;93.60
38941;DHT22;43236;47.208;7.518;2024-03-22T03:40:32;11.80;93.60
38941;DHT22;43236;47.208;7.518;2024-03-22T03:43:18;11.80;93.60
38941;DHT22;43236;47.208;7.518;2024-03-22T03:46:05;11.90;93.80
38941;DHT22;43236;47.208;7.518;2024-03-22T03:48:53;11.90;94.00
38941;DHT22;43236;47.208;7.518;2024-03-22T03:51:40;11.90;94.00
38941;DHT22;43236;47.208;7.518;2024-03-22T03:54:26;11.90;93.90
38941;DHT22;43236;47.208;7.518;2024-03-22T03:57:13;11.90;93.90
38941;DHT22;43236;47.208;7.518;2024-03-22T03:59:59;11.90;93.90
38941;DHT22;43236;47.208;7.518;2024-03-22T04:02:48;12.00;93.90
38941;DHT22;43236;47.208;7.518;2024-03-22T04:05:35;11.90;93.90
38941;DHT22;43236;47.208;7.518;2024-03-22T04:08:22;11.90;94.00
38941;DHT22;43236;47.208;7.518;2024-03-22T04:11:09;12.00;93.80
38941;DHT22;43236;47.208;7.518;2024-03-22T04:13:57;12.00;93.90
38941;DHT22;43236;47.208;7.518;2024-03-22T04:16:43;12.00;94.00
38941;DHT22;43236;47.208;7.518;2024-03-22T04:19:30;12.00;94.00
38941;DHT22;43236;47.208;7.518;2024-03-22T04:22:17;12.00;94.10
38941;DHT22;43236;47.208;7.518;2024-03-22T04:25:05;12.00;94.10
38941;DHT22;43236;47.208;7.518;2024-03-22T04:27:52;12.00;94.10
38941;DHT22;43236;47.208;7.518;2024-03-22T04:30:39;12.00;94.00
38941;DHT22;43236;47.208;7.518;2024-03-22T04:33:25;12.00;94.10
38941;DHT22;43236;47.208;7.518;2024-03-22T04:36:12;12.00;94.10
38941;DHT22;43236;47.208;7.518;2024-03-22T04:38:59;12.00;94.10
38941;DHT22;43236;47.208;7.518;2024-03-22T04:41:46;12.00;94.10
38941;DHT22;43236;47.208;7.518;2024-03-22T04:44:35;12.00;94.00
38941;DHT22;43236;47.208;7.518;2024-03-22T04:47:22;12.00;94.30
38941;DHT22;43236;47.208;7.518;2024-03-22T04:50:08;12.00;94.10
38941;DHT22;43236;47.208;7.518;2024-03-22T04:52:55;12.00;94.20
38941;DHT22;43236;47.208;7.518;2024-03-22T04:55:44;12.00;94.30
38941;DHT22;43236;47.208;7.518;2024-03-22T04:58:31;12.00;94.30
38941;DHT22;43236;47.208;7.518;2024-03-22T05:01:17;12.00;94.40
38941;DHT22;43236;47.208;7.518;2024-03-22T05:04:04;12.00;94.10
38941;DHT22;43236;47.208;7.518;2024-03-22T05:06:50;11.90;94.10
38941;DHT22;43236;47.208;7.518;2024-03-22T05:09:37;11.90;94.20
38941;DHT22;43236;47.208;7.518;2024-03-22T05:12:25;11.90;94.50
38941;DHT22;43236;47.208;7.518;2024-03-22T05:15:12;11.90;94.50
38941;DHT22;43236;47.208;7.518;2024-03-22T05:17:58;12.00;94.50
38941;DHT22;43236;47.208;7.518;2024-03-22T05:20:45;12.00;94.70
38941;DHT22;43236;47.208;7.518;2024-03-22T05:23:31;12.00;94.70
38941;DHT22;43236;47.208;7.518;2024-03-22T05:26:18;12.00;94.70
38941;DHT22;43236;47.208;7.518;2024-03-22T05:29:07;12.10;94.60
38941;DHT22;43236;47.208;7.518;2024-03-22T05:31:55;12.10;94.50
38941;DHT22;43236;47.208;7.518;2024-03-22T05:34:41;12.10;94.60
38941;DHT22;43236;47.208;7.518;2024-03-22T05:37:28;12.10;94.80
38941;DHT22;43236;47.208;7.518;2024-03-22T05:40:14;12.10;94.80
38941;DHT22;43236;47.208;7.518;2024-03-22T05:43:01;12.10;94.90
38941;DHT22;43236;47.208;7.518;2024-03-22T05:45:49;12.10;94.60
38941;DHT22;43236;47.208;7.518;2024-03-22T05:48:36;12.10;94.60
38941;DHT22;43236;47.208;7.518;2024-03-22T05:51:22;12.10;94.50
38941;DHT22;43236;47.208;7.518;2024-03-22T05:54:09;12.10;94.40
38941;DHT22;43236;47.208;7.518;2024-03-22T05:56:56;12.10;94.50
38941;DHT22;43236;47.208;7.518;2024-03-22T05:59:43;12.10;94.40
38941;DHT22;43236;47.208;7.518;2024-03-22T06:02:30;12.10;94.50
38941;DHT22;43236;47.208;7.518;2024-03-22T06:05:17;12.10;95.00
38941;DHT22;43236;47.208;7.518;2024-03-22T06:08:04;12.10;94.60
38941;DHT22;43236;47.208;7.518;2024-03-22T06:10:52;12.20;95.00
38941;DHT22;43236;47.208;7.518;2024-03-22T06:13:38;12.10;94.50
38941;DHT22;43236;47.208;7.518;2024-03-22T06:16:25;12.20;94.60
38941;DHT22;43236;47.208;7.518;2024-03-22T06:19:13;12.20;94.60
38941;DHT22;43236;47.208;7.518;2024-03-22T06:22:00;12.20;94.80
38941;DHT22;43236;47.208;7.518;2024-03-22T06:24:46;12.30;95.30
38941;DHT22;43236;47.208;7.518;2024-03-22T06:27:33;12.30;95.10
38941;DHT22;43236;47.208;7.518;2024-03-22T06:30:19;12.40;95.20
38941;DHT22;43236;47.208;7.518;2024-03-22T06:33:06;12.40;95.10
38941;DHT22;43236;47.208;7.518;2024-03-22T06:35:53;12.40;95.20
38941;DHT22;43236;47.208;7.518;2024-03-22T06:38:40;12.50;95.10
38941;DHT22;43236;47.208;7.518;2024-03-22T06:41:27;12.50;95.10
38941;DHT22;43236;47.208;7.518;2024-03-22T06:44:15;12.50;95.20
38941;DHT22;43236;47.208;7.518;2024-03-22T06:47:01;12.50;95.00
38941;DHT22;43236;47.208;7.518;2024-03-22T06:49:48;12.50;94.80
38941;DHT22;43236;47.208;7.518;2024-03-22T06:52:38;12.50;94.90
38941;DHT22;43236;47.208;7.518;2024-03-22T06:55:25;12.50;94.80
38941;DHT22;43236;47.208;7.518;2024-03-22T06:58:11;12.60;94.90
38941;DHT22;43236;47.208;7.518;2024-03-22T07:00:58;12.60;94.80
38941;DHT22;43236;47.208;7.518;2024-03-22T07:03:44;12.70;95.00
38941;DHT22;43236;47.208;7.518;2024-03-22T07:06:31;12.70;94.80
38941;DHT22;43236;47.208;7.518;2024-03-22T07:09:19;12.70;94.70
38941;DHT22;43236;47.208;7.518;2024-03-22T07:12:06;12.70;94.60
38941;DHT22;43236;47.208;7.518;2024-03-22T07:14:53;12.80;95.10
38941;DHT22;43236;47.208;7.518;2024-03-22T07:17:40;12.80;94.50
38941;DHT22;43236;47.208;7.518;2024-03-22T07:20:26;12.80;94.60
38941;DHT22;43236;47.208;7.518;2024-03-22T07:23:13;12.80;94.70
38941;DHT22;43236;47.208;7.518;2024-03-22T07:26:01;12.80;95.00
38941;DHT22;43236;47.208;7.518;2024-03-22T07:28:48;12.90;95.20
38941;DHT22;43236;47.208;7.518;2024-03-22T07:31:34;13.00;95.20
38941;DHT22;43236;47.208;7.518;2024-03-22T07:34:21;13.00;95.30
38941;DHT22;43236;47.208;7.518;2024-03-22T07:37:07;13.10;95.00
38941;DHT22;43236;47.208;7.518;2024-03-22T07:39:54;13.10;95.30
38941;DHT22;43236;47.208;7.518;2024-03-22T07:42:42;13.10;95.50
38941;DHT22;43236;47.208;7.518;2024-03-22T07:45:29;13.00;95.60
38941;DHT22;43236;47.208;7.518;2024-03-22T07:48:15;13.00;95.50
38941;DHT22;43236;47.208;7.518;2024-03-22T07:51:02;13.00;95.60
38941;DHT22;43236;47.208;7.518;2024-03-22T07:53:49;12.90;95.40
38941;DHT22;43236;47.208;7.518;2024-03-22T07:56:37;12.80;95.50
38941;DHT22;43236;47.208;7.518;2024-03-22T07:59:25;12.80;95.50
38941;DHT22;43236;47.208;7.518;2024-03-22T08:02:12;12.80;95.70
38941;DHT22;43236;47.208;7.518;2024-03-22T08:04:58;12.80;95.60
38941;DHT22;43236;47.208;7.518;2024-03-22T08:07:45;12.90;96.10
38941;DHT22;43236;47.208;7.518;2024-03-22T08:10:31;12.90;95.90
38941;DHT22;43236;47.208;7.518;2024-03-22T08:13:18;12.90;96.00
38941;DHT22;43236;47.208;7.518;2024-03-22T08:16:06;12.90;96.20
38941;DHT22;43236;47.208;7.518;2024-03-22T08:18:53;12.90;96.40
38941;DHT22;43236;47.208;7.518;2024-03-22T08:21:39;13.00;96.70
38941;DHT22;43236;47.208;7.518;2024-03-22T08:24:26;13.00;96.80
38941;DHT22;43236;47.208;7.518;2024-03-22T08:27:12;13.10;96.80
38941;DHT22;43236;47.208;7.518;2024-03-22T08:29:59;13.10;96.70
38941;DHT22;43236;47.208;7.518;2024-03-22T08:32:47;13.10;96.50
38941;DHT22;43236;47.208;7.518;2024-03-22T08:35:36;13.20;96.30
38941;DHT22;43236;47.208;7.518;2024-03-22T08:38:24;13.30;96.30
38941;DHT22;43236;47.208;7.518;2024-03-22T08:41:10;13.30;96.20
38941;DHT22;43236;47.208;7.518;2024-03-22T08:43:57;13.30;96.40
38941;DHT22;43236;47.208;7.518;2024-03-22T08:46:44;13.40;96.30
38941;DHT22;43236;47.208;7.518;2024-03-22T08:49:33;13.40;95.90
38941;DHT22;43236;47.208;7.518;2024-03-22T08:52:22;13.30;96.30
38941;DHT22;43236;47.208;7.518;2024-03-22T08:55:09;13.40;96.30
38941;DHT22;43236;47.208;7.518;2024-03-22T08:57:56;13.50;96.20
38941;DHT22;43236;47.208;7.518;2024-03-22T09:00:43;13.50;96.50
38941;DHT22;43236;47.208;7.518;2024-03-22T09:03:30;13.60;96.10
38941;DHT22;43236;47.208;7.518;2024-03-22T09:06:17;13.60;95.90
38941;DHT22;43236;47.208;7.518;2024-03-22T09:09:05;13.60;96.30
38941;DHT22;43236;47.208;7.518;2024-03-22T09:11:52;13.70;96.40
38941;DHT22;43236;47.208;7.518;2024-03-22T09:14:39;13.80;96.50
38941;DHT22;43236;47.208;7.518;2024-03-22T09:17:25;13.80;96.50
38941;DHT22;43236;47.208;7.518;2024-03-22T09:20:13;13.90;95.70
38941;DHT22;43236;47.208;7.518;2024-03-22T09:23:00;13.90;95.70
38941;DHT22;43236;47.208;7.518;2024-03-22T09:25:47;14.00;95.10
38941;DHT22;43236;47.208;7.518;2024-03-22T09:28:33;14.00;94.90
38941;DHT22;43236;47.208;7.518;2024-03-22T09:31:20;14.10;94.40
38941;DHT22;43236;47.208;7.518;2024-03-22T09:34:06;14.20;95.20
38941;DHT22;43236;47.208;7.518;2024-03-22T09:36:53;14.20;95.90
38941;DHT22;43236;47.208;7.518;2024-03-22T09:39:42;14.20;94.80
38941;DHT22;43236;47.208;7.518;2024-03-22T09:42:29;14.30;95.10
38941;DHT22;43236;47.208;7.518;2024-03-22T09:45:20;14.40;94.20
38941;DHT22;43236;47.208;7.518;2024-03-22T09:48:07;14.40;94.30
38941;DHT22;43236;47.208;7.518;2024-03-22T09:50:54;14.40;94.70
38941;DHT22;43236;47.208;7.518;2024-03-22T09:53:43;14.50;93.90
38941;DHT22;43236;47.208;7.518;2024-03-22T09:56:32;14.60;94.60
38941;DHT22;43236;47.208;7.518;2024-03-22T09:59:18;14.60;94.20
38941;DHT22;43236;47.208;7.518;2024-03-22T10:02:10;14.60;93.00
38941;DHT22;43236;47.208;7.518;2024-03-22T10:04:57;14.70;93.20
38941;DHT22;43236;47.208;7.518;2024-03-22T10:07:44;14.80;92.90
38941;DHT22;43236;47.208;7.518;2024-03-22T10:10:30;14.80;93.30
38941;DHT22;43236;47.208;7.518;2024-03-22T10:13:22;14.80;93.20
38941;DHT22;43236;47.208;7.518;2024-03-22T10:16:09;14.90;93.90
38941;DHT22;43236;47.208;7.518;2024-03-22T10:18:56;15.00;94.00
38941;DHT22;43236;47.208;7.518;2024-03-22T10:21:42;15.00;93.60
38941;DHT22;43236;47.208;7.518;2024-03-22T10:24:29;15.10;93.80
38941;DHT22;43236;47.208;7.518;2024-03-22T10:27:16;15.10;93.80
38941;DHT22;43236;47.208;7.518;2024-03-22T10:30:08;15.20;92.60
38941;DHT22;43236;47.208;7.518;2024-03-22T10:32:54;15.20;92.50
38941;DHT22;43236;47.208;7.518;2024-03-22T10:35:43;15.30;92.20
38941;DHT22;43236;47.208;7.518;2024-03-22T10:38:30;15.40;91.70
38941;DHT22;43236;47.208;7.518;2024-03-22T10:41:19;15.40;91.30
38941;DHT22;43236;47.208;7.518;2024-03-22T10:44:05;15.50;91.40
38941;DHT22;43236;47.208;7.518;2024-03-22T10:46:59;15.60;91.60
38941;DHT22;43236;47.208;7.518;2024-03-22T10:49:48;15.70;90.90
38941;DHT22;43236;47.208;7.518;2024-03-22T10:52:39;15.70;91.20
38941;DHT22;43236;47.208;7.518;2024-03-22T10:55:28;15.80;91.20
38941;DHT22;43236;47.208;7.518;2024-03-22T10:58:18;15.80;91.50
38941;DHT22;43236;47.208;7.518;2024-03-22T11:01:04;16.00;92.00
38941;DHT22;43236;47.208;7.518;2024-03-22T11:04:03;16.00;91.40
38941;DHT22;43236;47.208;7.518;2024-03-22T11:06:49;16.10;90.80
38941;DHT22;43236;47.208;7.518;2024-03-22T11:09:36;16.20;91.40
38941;DHT22;43236;47.208;7.518;2024-03-22T11:12:24;16.30;91.50
38941;DHT22;43236;47.208;7.518;2024-03-22T11:15:12;16.30;90.70
38941;DHT22;43236;47.208;7.518;2024-03-22T11:17:59;16.40;89.60
38941;DHT22;43236;47.208;7.518;2024-03-22T11:20:47;16.40;89.80
38941;DHT22;43236;47.208;7.518;2024-03-22T11:23:33;16.40;88.70
38941;DHT22;43236;47.208;7.518;2024-03-22T11:26:22;16.50;90.20
38941;DHT22;43236;47.208;7.518;2024-03-22T11:29:08;16.50;89.20
38941;DHT22;43236;47.208;7.518;2024-03-22T11:31:55;16.50;85.80
38941;DHT22;43236;47.208;7.518;2024-03-22T11:34:41;16.50;84.40
38941;DHT22;43236;47.208;7.518;2024-03-22T11:37:33;16.50;84.00
38941;DHT22;43236;47.208;7.518;2024-03-22T11:40:23;16.50;85.30
38941;DHT22;43236;47.208;7.518;2024-03-22T11:43:11;16.40;85.50
38941;DHT22;43236;47.208;7.518;2024-03-22T11:45:59;16.40;87.40
38941;DHT22;43236;47.208;7.518;2024-03-22T11:48:51;16.40;87.30
38941;DHT22;43236;47.208;7.518;2024-03-22T11:51:38;16.50;86.70
38941;DHT22;43236;47.208;7.518;2024-03-22T11:54:26;16.50;86.70
38941;DHT22;43236;47.208;7.518;2024-03-22T11:57:13;16.60;87.50
38941;DHT22;43236;47.208;7.518;2024-03-22T12:00:03;16.60;85.30
38941;DHT22;43236;47.208;7.518;2024-03-22T12:02:50;16.70;84.20
38941;DHT22;43236;47.208;7.518;2024-03-22T12:05:38;16.70;83.30
38941;DHT22;43236;47.208;7.518;2024-03-22T12:08:26;16.70;83.40
38941;DHT22;43236;47.208;7.518;2024-03-22T12:11:14;16.80;84.50
38941;DHT22;43236;47.208;7.518;2024-03-22T12:14:00;16.80;84.60
38941;DHT22;43236;47.208;7.518;2024-03-22T12:16:50;16.80;83.50
38941;DHT22;43236;47.208;7.518;2024-03-22T12:19:36;16.90;82.70
38941;DHT22;43236;47.208;7.518;2024-03-22T12:22:23;17.00;83.70
38941;DHT22;43236;47.208;7.518;2024-03-22T12:25:11;17.00;85.40
38941;DHT22;43236;47.208;7.518;2024-03-22T12:27:59;17.10;84.30
38941;DHT22;43236;47.208;7.518;2024-03-22T12:30:45;17.10;84.70
38941;DHT22;43236;47.208;7.518;2024-03-22T12:33:32;17.20;84.80
38941;DHT22;43236;47.208;7.518;2024-03-22T12:36:19;17.30;84.50
38941;DHT22;43236;47.208;7.518;2024-03-22T12:39:06;17.20;83.90
38941;DHT22;43236;47.208;7.518;2024-03-22T12:41:52;17.40;84.40
38941;DHT22;43236;47.208;7.518;2024-03-22T12:44:41;17.40;84.30
38941;DHT22;43236;47.208;7.518;2024-03-22T12:47:27;17.40;83.50
38941;DHT22;43236;47.208;7.518;2024-03-22T12:50:15;17.60;83.40
38941;DHT22;43236;47.208;7.518;2024-03-22T12:53:01;17.60;83.50
38941;DHT22;43236;47.208;7.518;2024-03-22T12:55:48;17.60;83.50
38941;DHT22;43236;47.208;7.518;2024-03-22T12:58:34;17.60;82.80
38941;DHT22;43236;47.208;7.518;2024-03-22T13:01:22;17.60;82.40
38941;DHT22;43236;47.208;7.518;2024-03-22T13:04:08;17.50;82.90
38941;DHT22;43236;47.208;7.518;2024-03-22T13:06:55;17.60;82.90
38941;DHT22;43236;47.208;7.518;2024-03-22T13:09:41;17.60;81.80
38941;DHT22;43236;47.208;7.518;2024-03-22T13:12:29;17.60;79.80
38941;DHT22;43236;47.208;7.518;2024-03-22T13:15:17;17.60;81.40
38941;DHT22;43236;47.208;7.518;2024-03-22T13:18:05;17.60;82.20
38941;DHT22;43236;47.208;7.518;2024-03-22T13:20:51;17.70;84.80
38941;DHT22;43236;47.208;7.518;2024-03-22T13:23:39;17.80;82.10
38941;DHT22;43236;47.208;7.518;2024-03-22T13:26:25;17.80;80.50
38941;DHT22;43236;47.208;7.518;2024-03-22T13:29:12;17.80;80.30
38941;DHT22;43236;47.208;7.518;2024-03-22T13:31:59;17.90;80.50
38941;DHT22;43236;47.208;7.518;2024-03-22T13:34:48;17.90;79.40
38941;DHT22;43236;47.208;7.518;2024-03-22T13:37:36;17.90;79.30
38941;DHT22;43236;47.208;7.518;2024-03-22T13:40:23;17.90;79.00
38941;DHT22;43236;47.208;7.518;2024-03-22T13:43:09;18.00;76.20
38941;DHT22;43236;47.208;7.518;2024-03-22T13:45:56;18.00;75.60
38941;DHT22;43236;47.208;7.518;2024-03-22T13:48:43;18.00;77.80
38941;DHT22;43236;47.208;7.518;2024-03-22T13:51:31;18.10;78.20
38941;DHT22;43236;47.208;7.518;2024-03-22T13:54:18;18.10;78.20
38941;DHT22;43236;47.208;7.518;2024-03-22T13:57:05;18.20;80.90
38941;DHT22;43236;47.208;7.518;2024-03-22T13:59:51;18.20;77.90
38941;DHT22;43236;47.208;7.518;2024-03-22T14:02:38;18.20;78.10
38941;DHT22;43236;47.208;7.518;2024-03-22T14:05:25;18.20;78.30
38941;DHT22;43236;47.208;7.518;2024-03-22T14:08:14;18.20;77.50
38941;DHT22;43236;47.208;7.518;2024-03-22T14:11:01;18.30;79.40
38941;DHT22;43236;47.208;7.518;2024-03-22T14:13:47;18.20;78.30
38941;DHT22;43236;47.208;7.518;2024-03-22T14:16:34;18.30;79.50
38941;DHT22;43236;47.208;7.518;2024-03-22T14:19:21;18.30;79.00
38941;DHT22;43236;47.208;7.518;2024-03-22T14:22:08;18.30;78.10
38941;DHT22;43236;47.208;7.518;2024-03-22T14:24:55;18.30;77.20
38941;DHT22;43236;47.208;7.518;2024-03-22T14:27:42;18.30;80.10
38941;DHT22;43236;47.208;7.518;2024-03-22T14:30:31;18.30;78.70
38941;DHT22;43236;47.208;7.518;2024-03-22T14:33:18;18.30;76.90
38941;DHT22;43236;47.208;7.518;2024-03-22T14:36:05;18.30;76.00
38941;DHT22;43236;47.208;7.518;2024-03-22T14:38:53;18.30;76.20
38941;DHT22;43236;47.208;7.518;2024-03-22T14:41:41;18.40;78.10
38941;DHT22;43236;47.208;7.518;2024-03-22T14:44:27;18.40;78.90
38941;DHT22;43236;47.208;7.518;2024-03-22T14:47:14;18.40;76.40
38941;DHT22;43236;47.208;7.518;2024-03-22T14:50:00;18.40;77.80
38941;DHT22;43236;47.208;7.518;2024-03-22T14:52:48;18.40;78.20
38941;DHT22;43236;47.208;7.518;2024-03-22T14:55:34;18.40;76.10
38941;DHT22;43236;47.208;7.518;2024-03-22T14:58:23;18.50;75.50
38941;DHT22;43236;47.208;7.518;2024-03-22T15:01:09;18.50;77.10
38941;DHT22;43236;47.208;7.518;2024-03-22T15:03:56;18.50;77.00
38941;DHT22;43236;47.208;7.518;2024-03-22T15:06:43;18.50;76.70
38941;DHT22;43236;47.208;7.518;2024-03-22T15:09:31;18.50;77.20
38941;DHT22;43236;47.208;7.518;2024-03-22T15:12:17;18.50;76.20
38941;DHT22;43236;47.208;7.518;2024-03-22T15:15:07;18.50;74.40
38941;DHT22;43236;47.208;7.518;2024-03-22T15:17:53;18.50;73.50
38941;DHT22;43236;47.208;7.518;2024-03-22T15:20:41;18.50;77.60
38941;DHT22;43236;47.208;7.518;2024-03-22T15:23:27;18.50;80.00
38941;DHT22;43236;47.208;7.518;2024-03-22T15:26:14;18.50;75.10
38941;DHT22;43236;47.208;7.518;2024-03-22T15:29:00;18.50;77.00
38941;DHT22;43236;47.208;7.518;2024-03-22T15:31:48;18.50;76.60
38941;DHT22;43236;47.208;7.518;2024-03-22T15:34:34;18.50;75.00
38941;DHT22;43236;47.208;7.518;2024-03-22T15:37:22;18.50;74.10
38941;DHT22;43236;47.208;7.518;2024-03-22T15:40:08;18.50;73.60
38941;DHT22;43236;47.208;7.518;2024-03-22T15:42:55;18.40;73.30
38941;DHT22;43236;47.208;7.518;2024-03-22T15:45:41;18.50;75.30
38941;DHT22;43236;47.208;7.518;2024-03-22T15:48:30;18.40;74.30
38941;DHT22;43236;47.208;7.518;2024-03-22T15:51:16;18.40;73.80
38941;DHT22;43236;47.208;7.518;2024-03-22T15:54:03;18.40;73.10
38941;DHT22;43236;47.208;7.518;2024-03-22T15:56:50;18.40;72.90
38941;DHT22;43236;47.208;7.518;2024-03-22T15:59:37;18.40;72.80
38941;DHT22;43236;47.208;7.518;2024-03-22T16:02:23;18.40;74.70
38941;DHT22;43236;47.208;7.518;2024-03-22T16:05:11;18.40;75.70
38941;DHT22;43236;47.208;7.518;2024-03-22T16:07:58;18.30;74.70
38941;DHT22;43236;47.208;7.518;2024-03-22T16:10:44;18.30;76.50
38941;DHT22;43236;47.208;7.518;2024-03-22T16:13:31;18.30;74.00
38941;DHT22;43236;47.208;7.518;2024-03-22T16:16:17;18.30;71.80
38941;DHT22;43236;47.208;7.518;2024-03-22T16:19:04;18.30;72.90
38941;DHT22;43236;47.208;7.518;2024-03-22T16:21:52;18.30;73.00
38941;DHT22;43236;47.208;7.518;2024-03-22T16:24:39;18.30;73.20
38941;DHT22;43236;47.208;7.518;2024-03-22T16:27:26;18.20;73.00
38941;DHT22;43236;47.208;7.518;2024-03-22T16:30:13;18.20;71.90
38941;DHT22;43236;47.208;7.518;2024-03-22T16:33:00;18.20;71.00
38941;DHT22;43236;47.208;7.518;2024-03-22T16:35:49;18.20;73.10
38941;DHT22;43236;47.208;7.518;2024-03-22T16:38:37;18.10;70.30
38941;DHT22;43236;47.208;7.518;2024-03-22T16:41:23;18.10;70.60
38941;DHT22;43236;47.208;7.518;2024-03-22T16:44:10;18.10;71.90
38941;DHT22;43236;47.208;7.518;2024-03-22T16:46:56;18.00;72.40
38941;DHT22;43236;47.208;7.518;2024-03-22T16:49:43;18.00;71.60
38941;DHT22;43236;47.208;7.518;2024-03-22T16:52:29;18.00;72.20
38941;DHT22;43236;47.208;7.518;2024-03-22T16:55:19;17.90;72.20
38941;DHT22;43236;47.208;7.518;2024-03-22T16:58:07;17.90;72.10
38941;DHT22;43236;47.208;7.518;2024-03-22T17:00:54;17.90;71.20
38941;DHT22;43236;47.208;7.518;2024-03-22T17:03:40;17.90;71.70
38941;DHT22;43236;47.208;7.518;2024-03-22T17:06:28;17.90;72.40
38941;DHT22;43236;47.208;7.518;2024-03-22T17:09:14;17.80;73.50
38941;DHT22;43236;47.208;7.518;2024-03-22T17:12:02;17.80;74.40
38941;DHT22;43236;47.208;7.518;2024-03-22T17:14:49;17.70;75.60
38941;DHT22;43236;47.208;7.518;2024-03-22T17:17:36;17.70;74.10
38941;DHT22;43236;47.208;7.518;2024-03-22T17:20:22;17.60;74.50
38941;DHT22;43236;47.208;7.518;2024-03-22T17:23:09;17.50;75.90
38941;DHT22;43236;47.208;7.518;2024-03-22T17:25:58;17.50;75.60
38941;DHT22;43236;47.208;7.518;2024-03-22T17:28:47;17.50;76.20
38941;DHT22;43236;47.208;7.518;2024-03-22T17:31:34;17.50;75.80
38941;DHT22;43236;47.208;7.518;2024-03-22T17:34:21;17.40;76.30